Terminal Aerodrome Forecast
Issued by NWS Boise, ID

Home | Current Version | Previous Version | Text Only | Print | Product List | Glossary On
Versions: 1 2 3 4 5 6 7 8 9 10 11 12 13 14 15
000
FTUS45 KBOI 161120
TAFBNO
TAF
KBNO 161120Z 1612/1712 26006KT P6SM SCT100 OVC200
     FM161900 25010KT P6SM SCT050 BKN100
     FM170300 VRB05KT P6SM OVC050=

USA.gov is the U.S. government's official web portal to all federal, state and local government web resources and services.